Time;durP1;ratioP1;P1;durP2;ratioP2;P2;SDS_P1;SDS_P2;PMS_P1;PMS_P2;Temp;Humidity;BMP_temperature;BMP_pressure;BME280_temperature;BME280_humidity;BME280_pressure;Samples;Min_cycle;Max_cycle;Signal;HPM_P1;HPM_P2
2024/03/18 00:00:42;;;;;;;4.70;2.40;;;;;;;2.99;61.17;99241.05;105273;1262;98349;-79
2024/03/18 00:03:30;;;;;;;4.10;2.30;;;;;;;2.97;61.05;99237.09;104957;1259;97987;-83
2024/03/18 00:05:58;;;;;;;5.10;2.30;;;;;;;2.94;61.30;99233.17;105119;1259;111362;-79
2024/03/18 00:08:26;;;;;;;5.10;2.40;;;;;;;2.89;61.52;99231.98;105224;1259;97906;-79
2024/03/18 00:10:54;;;;;;;3.80;2.00;;;;;;;2.87;61.33;99231.20;105235;1262;109450;-79
2024/03/18 00:13:22;;;;;;;3.40;2.00;;;;;;;2.82;61.26;99230.83;105297;1262;97919;-78
2024/03/18 00:15:50;;;;;;;3.50;1.90;;;;;;;2.79;61.19;99225.70;105429;1262;97968;-79
2024/03/18 00:18:18;;;;;;;5.40;2.30;;;;;;;2.77;61.18;99223.50;105227;1259;111323;-79
2024/03/18 00:20:46;;;;;;;4.10;2.50;;;;;;;2.76;61.32;99220.21;105163;1259;97981;-77
2024/03/18 00:23:14;;;;;;;3.70;2.10;;;;;;;2.75;61.49;99217.64;105232;1259;107120;-78
2024/03/18 00:25:42;;;;;;;4.50;3.00;;;;;;;2.74;61.38;99217.14;104980;1274;97969;-79
2024/03/18 00:28:12;;;;;;;5.40;2.90;;;;;;;2.72;61.73;99211.09;105071;1262;98059;-80
2024/03/18 00:30:40;;;;;;;4.20;2.80;;;;;;;2.71;61.62;99208.84;105125;1262;112025;-79
2024/03/18 00:33:13;;;;;;;4.70;2.70;;;;;;;2.72;61.26;99211.61;105346;1262;97983;-80
2024/03/18 00:35:41;;;;;;;3.80;2.20;;;;;;;2.73;61.68;99210.15;105498;1262;107520;-79
2024/03/18 00:38:10;;;;;;;4.40;2.30;;;;;;;2.72;61.62;99215.80;104946;1262;99287;-79
2024/03/18 00:40:38;;;;;;;4.50;2.50;;;;;;;2.70;61.36;99213.61;105508;1259;98086;-79
2024/03/18 00:43:07;;;;;;;5.30;2.20;;;;;;;2.68;61.77;99212.63;105140;1259;110645;-77
2024/03/18 00:45:35;;;;;;;4.60;2.30;;;;;;;2.66;61.65;99211.13;105119;1259;98067;-78
2024/03/18 00:48:07;;;;;;;3.70;3.10;;;;;;;2.61;61.85;99212.71;105007;1262;107304;-78
2024/03/18 00:50:35;;;;;;;4.60;2.50;;;;;;;2.56;61.71;99214.15;105095;1258;98003;-77
2024/03/18 00:53:03;;;;;;;3.40;2.30;;;;;;;2.50;61.71;99216.09;105387;1262;98066;-77
2024/03/18 00:55:35;;;;;;;3.00;1.80;;;;;;;2.40;61.68;99220.51;105492;1262;110708;-77
2024/03/18 00:58:09;;;;;;;2.60;1.50;;;;;;;2.25;61.59;99218.06;104863;1271;98449;-78
2024/03/18 01:00:37;;;;;;;3.00;1.30;;;;;;;2.14;61.74;99219.67;105035;1262;107710;-80
2024/03/18 01:03:05;;;;;;;2.50;1.70;;;;;;;2.07;61.59;99223.77;104859;1262;98060;-80
2024/03/18 01:05:34;;;;;;;2.20;1.30;;;;;;;1.97;61.60;99225.16;104875;1262;97969;-79
2024/03/18 01:08:02;;;;;;;1.60;1.00;;;;;;;1.89;61.45;99222.45;105271;1259;111948;-78
2024/03/18 01:10:30;;;;;;;1.70;0.90;;;;;;;1.79;61.35;99219.98;105087;1262;98060;-79
2024/03/18 01:12:58;;;;;;;1.70;1.10;;;;;;;1.73;61.50;99220.03;105600;1260;108486;-79
2024/03/18 01:15:26;;;;;;;2.10;1.40;;;;;;;1.72;61.62;99213.25;105241;1262;97964;-79
2024/03/18 01:17:59;;;;;;;2.10;1.30;;;;;;;1.65;61.64;99213.13;105133;1259;97900;-80
2024/03/18 01:20:33;;;;;;;2.10;1.20;;;;;;;1.61;61.60;99208.55;104892;1264;111880;-78
2024/03/18 01:23:01;;;;;;;2.80;1.40;;;;;;;1.58;61.63;99210.56;105164;1262;98073;-78
2024/03/18 01:25:29;;;;;;;5.30;1.90;;;;;;;1.53;61.36;99206.02;105144;1278;107596;-78
2024/03/18 01:27:57;;;;;;;2.50;1.40;;;;;;;1.55;61.82;99212.24;104872;1264;98051;-79
2024/03/18 01:30:27;;;;;;;3.40;1.90;;;;;;;1.55;61.53;99209.83;105078;1262;98007;-80
2024/03/18 01:32:55;;;;;;;2.70;1.40;;;;;;;1.50;61.79;99205.78;105823;1260;111359;-78
2024/03/18 01:35:23;;;;;;;2.50;1.50;;;;;;;1.46;61.56;99208.33;105031;1261;97994;-78
2024/03/18 01:37:51;;;;;;;2.40;1.80;;;;;;;1.47;61.91;99211.30;104916;1262;106262;-78
2024/03/18 01:40:19;;;;;;;3.00;1.30;;;;;;;1.46;61.60;99210.44;105301;1259;98686;-81
2024/03/18 01:42:47;;;;;;;2.90;1.70;;;;;;;1.44;61.72;99202.98;105036;1262;99165;-78
2024/03/18 01:45:22;;;;;;;2.90;1.50;;;;;;;1.45;61.73;99202.06;104988;1262;111347;-78
2024/03/18 01:47:51;;;;;;;4.00;1.70;;;;;;;1.46;61.81;99199.79;105189;1262;97958;-78
2024/03/18 01:50:20;;;;;;;2.50;1.40;;;;;;;1.47;61.87;99200.27;105616;1262;110018;-79
2024/03/18 01:52:48;;;;;;;4.10;2.20;;;;;;;1.45;61.72;99199.46;105517;1262;97956;-77
2024/03/18 01:55:17;;;;;;;4.20;2.00;;;;;;;1.45;61.94;99204.89;105456;1259;98067;-79
2024/03/18 01:57:47;;;;;;;3.80;2.00;;;;;;;1.47;61.93;99206.73;105133;1259;113340;-79
2024/03/18 02:00:41;;;;;;;2.50;1.50;;;;;;;1.46;61.77;99200.98;105169;1259;98071;-78
2024/03/18 02:03:09;;;;;;;3.00;1.70;;;;;;;1.43;61.77;99197.95;105119;1259;107683;-78
2024/03/18 02:05:38;;;;;;;3.70;1.80;;;;;;;1.40;61.93;99199.63;105273;1259;98000;-81
2024/03/18 02:08:06;;;;;;;2.70;1.50;;;;;;;1.41;61.72;99203.09;105288;1259;98804;-78
2024/03/18 02:10:34;;;;;;;5.60;2.80;;;;;;;1.45;62.09;99201.02;105562;1262;111308;-78
2024/03/18 02:13:05;;;;;;;3.30;1.80;;;;;;;1.47;62.31;99202.54;105193;1262;98000;-79
2024/03/18 02:15:33;;;;;;;3.00;1.70;;;;;;;1.48;62.38;99202.84;105226;1259;107206;-77
2024/03/18 02:18:01;;;;;;;3.10;1.90;;;;;;;1.47;62.00;99208.11;104998;1262;98004;-80
2024/03/18 02:20:29;;;;;;;3.70;1.80;;;;;;;1.46;62.11;99213.03;104976;1262;97974;-81
2024/03/18 02:22:57;;;;;;;3.50;1.50;;;;;;;1.44;62.02;99212.59;105314;1262;111278;-79
2024/03/18 02:25:25;;;;;;;3.80;2.10;;;;;;;1.37;62.48;99222.45;104991;1274;97943;-80
2024/03/18 02:27:53;;;;;;;6.80;3.60;;;;;;;1.30;62.33;99233.84;105279;1259;106986;-78
2024/03/18 02:30:22;;;;;;;7.90;5.20;;;;;;;1.19;62.55;99233.31;105969;1263;98003;-78
2024/03/18 02:32:50;;;;;;;6.20;3.70;;;;;;;1.06;62.41;99227.44;105431;1262;97974;-78
2024/03/18 02:35:21;;;;;;;5.60;2.60;;;;;;;0.98;62.53;99215.80;104941;1259;111306;-78
2024/03/18 02:37:48;;;;;;;5.90;2.50;;;;;;;0.95;62.33;99215.37;105068;1262;98006;-79
2024/03/18 02:40:16;;;;;;;3.50;2.50;;;;;;;0.95;62.62;99216.25;105393;1262;106779;-79
2024/03/18 02:42:44;;;;;;;2.80;1.90;;;;;;;0.95;62.62;99214.33;105192;1262;98070;-77
2024/03/18 02:45:12;;;;;;;3.60;1.90;;;;;;;0.95;62.58;99216.59;105055;1262;97943;-80
2024/03/18 02:47:41;;;;;;;3.60;1.80;;;;;;;0.95;62.73;99213.29;104960;1259;112437;-79
2024/03/18 02:50:14;;;;;;;3.10;1.60;;;;;;;0.95;62.74;99213.46;105953;1259;97920;-80
2024/03/18 02:52:43;;;;;;;2.40;1.70;;;;;;;0.96;62.58;99204.70;105148;1262;107100;-78
2024/03/18 02:55:14;;;;;;;2.90;1.40;;;;;;;0.95;62.56;99206.11;105329;1262;97987;-80
2024/03/18 02:57:43;;;;;;;2.60;1.30;;;;;;;0.95;62.60;99202.13;105332;1262;98067;-82
2024/03/18 03:00:13;;;;;;;2.10;1.40;;;;;;;0.95;62.93;99201.59;105066;1273;111713;-80
2024/03/18 03:02:41;;;;;;;1.70;1.20;;;;;;;0.95;62.73;99195.65;105283;1262;97991;-79
2024/03/18 03:05:09;;;;;;;3.00;2.00;;;;;;;0.96;62.73;99198.60;105524;1260;106969;-78
2024/03/18 03:07:36;;;;;;;1.70;1.10;;;;;;;0.97;62.79;99193.13;105939;1263;98023;-79
2024/03/18 03:10:05;;;;;;;2.50;1.40;;;;;;;0.98;62.60;99193.64;105165;1263;98090;-78
2024/03/18 03:12:33;;;;;;;2.20;1.30;;;;;;;0.99;63.00;99195.34;105135;1262;111181;-79
2024/03/18 03:15:01;;;;;;;1.40;1.10;;;;;;;1.00;62.96;99197.40;105000;1262;97967;-79
2024/03/18 03:17:28;;;;;;;2.00;1.10;;;;;;;0.99;62.95;99195.16;105073;1262;107236;-78
2024/03/18 03:19:56;;;;;;;2.20;1.30;;;;;;;0.98;62.78;99198.19;105312;1262;99318;-78
2024/03/18 03:22:28;;;;;;;2.70;1.70;;;;;;;0.94;62.85;99201.10;105156;1259;98279;-79
2024/03/18 03:24:55;;;;;;;5.40;2.90;;;;;;;0.91;62.93;99199.10;105625;1259;110031;-81
2024/03/18 03:27:26;;;;;;;4.60;3.50;;;;;;;0.90;63.08;99200.50;105821;1259;97993;-78
2024/03/18 03:29:55;;;;;;;5.40;4.50;;;;;;;0.90;63.08;99195.45;105177;1260;108896;-78
2024/03/18 03:32:23;;;;;;;5.20;3.50;;;;;;;0.87;63.09;99196.05;105266;1262;101570;-78
2024/03/18 03:34:51;;;;;;;4.10;1.80;;;;;;;0.86;62.91;99195.02;105107;1262;99227;-78
2024/03/18 03:37:21;;;;;;;4.90;2.10;;;;;;;0.83;63.04;99194.42;105314;1262;111294;-81
2024/03/18 03:39:49;;;;;;;4.00;2.10;;;;;;;0.81;62.99;99189.80;105259;1259;97975;-77
2024/03/18 03:42:16;;;;;;;3.70;2.40;;;;;;;0.80;63.26;99190.88;105249;1262;108240;-79
2024/03/18 03:44:44;;;;;;;3.40;2.00;;;;;;;0.81;63.36;99193.27;105218;1262;98065;-78
2024/03/18 03:47:12;;;;;;;3.20;2.10;;;;;;;0.79;63.45;99192.83;105856;1263;97932;-78
2024/03/18 03:49:39;;;;;;;3.50;3.10;;;;;;;0.76;63.35;99194.83;105033;1263;110013;-79
2024/03/18 03:52:07;;;;;;;3.20;2.00;;;;;;;0.74;63.38;99192.95;105221;1262;98003;-83
2024/03/18 03:54:35;;;;;;;2.50;2.10;;;;;;;0.71;63.36;99194.11;105239;1259;107676;-79
2024/03/18 03:57:02;;;;;;;2.80;1.80;;;;;;;0.68;63.64;99188.95;105190;1274;99315;-79
2024/03/18 03:59:30;;;;;;;3.20;2.00;;;;;;;0.68;63.41;99191.22;105202;1262;97942;-79
2024/03/18 04:01:58;;;;;;;2.10;1.60;;;;;;;0.68;63.55;99192.10;105196;1262;111550;-80
2024/03/18 04:04:26;;;;;;;2.40;1.30;;;;;;;0.71;63.57;99192.02;105321;1259;97993;-79
2024/03/18 04:06:55;;;;;;;2.40;1.40;;;;;;;0.72;63.39;99192.15;105559;1264;107689;-80
2024/03/18 04:09:24;;;;;;;2.20;1.50;;;;;;;0.73;63.52;99191.08;105171;1267;98042;-80
2024/03/18 04:11:57;;;;;;;2.60;1.60;;;;;;;0.76;63.63;99192.05;104942;1259;97894;-79
2024/03/18 04:14:25;;;;;;;2.80;2.30;;;;;;;0.76;63.89;99192.92;105147;1259;111272;-78
2024/03/18 04:16:53;;;;;;;2.30;1.60;;;;;;;0.77;63.70;99194.28;105211;1262;98065;-79
2024/03/18 04:19:21;;;;;;;2.60;1.60;;;;;;;0.77;63.48;99192.70;105206;1259;105698;-81
2024/03/18 04:21:49;;;;;;;3.00;1.80;;;;;;;0.77;63.58;99196.73;105523;1260;98184;-79
2024/03/18 04:24:17;;;;;;;4.60;2.00;;;;;;;0.75;63.51;99194.16;106044;1259;98782;-79
2024/03/18 04:26:47;;;;;;;3.00;1.80;;;;;;;0.73;64.00;99200.32;105421;1262;111167;-79
2024/03/18 04:29:15;;;;;;;3.70;2.40;;;;;;;0.74;63.87;99199.94;105365;1262;97971;-78
2024/03/18 04:31:43;;;;;;;3.90;2.30;;;;;;;0.75;64.05;99200.61;105214;1264;107802;-78
2024/03/18 04:34:16;;;;;;;3.00;1.90;;;;;;;0.76;64.02;99204.97;105485;1259;97972;-79
2024/03/18 04:36:44;;;;;;;4.80;2.80;;;;;;;0.70;63.99;99211.25;105388;1264;97990;-79
2024/03/18 04:39:14;;;;;;;3.90;2.30;;;;;;;0.66;64.20;99209.79;104937;1265;112299;-79
2024/03/18 04:41:42;;;;;;;4.10;2.20;;;;;;;0.61;64.35;99215.67;105339;1260;98128;-79
2024/03/18 04:44:09;;;;;;;3.20;2.40;;;;;;;0.57;64.50;99218.27;104980;1274;106801;-78
2024/03/18 04:46:37;;;;;;;3.80;2.40;;;;;;;0.51;64.63;99220.68;105122;1262;99299;-80
2024/03/18 04:49:07;;;;;;;2.80;1.80;;;;;;;0.49;64.58;99221.10;105019;1262;99184;-80
2024/03/18 04:51:37;;;;;;;3.90;2.60;;;;;;;0.49;64.68;99224.25;105236;1262;110793;-80
2024/03/18 04:54:05;;;;;;;3.80;2.70;;;;;;;0.50;64.78;99229.27;105310;1265;98316;-80
2024/03/18 04:56:33;;;;;;;5.20;3.80;;;;;;;0.47;64.81;99228.65;105249;1262;107698;-78
2024/03/18 04:59:03;;;;;;;4.60;2.80;;;;;;;0.44;64.85;99232.77;105172;1262;99199;-79
2024/03/18 05:01:31;;;;;;;4.00;2.10;;;;;;;0.38;65.08;99240.09;105064;1259;97923;-81
2024/03/18 05:04:08;;;;;;;4.70;2.00;;;;;;;0.27;65.67;99244.39;105275;1260;111700;-82
2024/03/18 05:06:39;;;;;;;4.10;1.90;;;;;;;0.17;65.12;99245.02;105397;1259;99298;-84
2024/03/18 05:09:09;;;;;;;3.90;2.00;;;;;;;0.14;65.45;99247.35;106090;1262;107760;-82
2024/03/18 05:11:40;;;;;;;3.00;1.80;;;;;;;0.07;65.51;99243.20;105817;1259;98028;-83
2024/03/18 05:14:11;;;;;;;4.70;3.30;;;;;;;0.02;65.50;99245.60;105409;1260;98509;-82
2024/03/18 05:16:46;;;;;;;5.80;3.20;;;;;;;-0.01;65.65;99248.29;105289;1259;110227;-80
2024/03/18 05:19:23;;;;;;;4.00;2.40;;;;;;;-0.05;65.74;99247.69;105246;1265;97965;-80
2024/03/18 05:22:24;;;;;;;3.20;2.10;;;;;;;-0.15;65.78;99245.52;108226;1259;108080;-80
2024/03/18 05:25:10;;;;;;;3.00;2.20;;;;;;;-0.20;65.98;99246.14;107492;1260;97987;-81
2024/03/18 05:28:20;;;;;;;3.00;1.50;;;;;;;-0.21;65.65;99243.58;106686;1258;98378;-81
2024/03/18 05:32:09;;;;;;;3.10;2.00;;;;;;;-0.22;65.80;99243.59;105574;1259;112150;-81
2024/03/18 05:35:27;;;;;;;5.20;2.20;;;;;;;-0.18;65.99;99250.65;102615;1291;637561;-81
2024/03/18 05:37:58;;;;;;;3.40;2.40;;;;;;;-0.20;66.21;99247.20;105959;1265;95250;-72
2024/03/18 05:40:26;;;;;;;2.70;2.30;;;;;;;-0.19;66.00;99243.86;104747;1265;95974;-73
2024/03/18 05:42:53;;;;;;;4.00;2.40;;;;;;;-0.19;66.12;99246.83;105138;1268;108481;-74
2024/03/18 05:45:21;;;;;;;3.10;1.90;;;;;;;-0.19;66.13;99246.30;104840;1266;95563;-74
2024/03/18 05:47:49;;;;;;;3.20;2.10;;;;;;;-0.18;66.42;99246.98;104595;1268;147729;-73
2024/03/18 05:50:16;;;;;;;3.00;1.60;;;;;;;-0.20;66.45;99246.35;104842;1264;95265;-74
2024/03/18 05:52:46;;;;;;;5.60;2.30;;;;;;;-0.21;66.37;99245.48;104954;1264;95248;-74
2024/03/18 05:55:17;;;;;;;4.40;2.50;;;;;;;-0.18;66.46;99244.89;104770;1265;109386;-74
2024/03/18 05:57:44;;;;;;;5.10;2.50;;;;;;;-0.17;66.58;99244.49;104859;1263;95344;-73
2024/03/18 06:00:12;;;;;;;4.10;3.40;;;;;;;-0.14;66.66;99246.02;105017;1262;107485;-75
2024/03/18 06:02:40;;;;;;;3.50;2.90;;;;;;;-0.11;66.67;99248.04;104871;1262;96686;-74
2024/03/18 06:05:08;;;;;;;4.10;2.70;;;;;;;-0.10;66.75;99246.23;105261;1262;96611;-72
2024/03/18 06:07:36;;;;;;;4.80;3.00;;;;;;;-0.09;66.47;99248.14;105335;1261;108418;-74
2024/03/18 06:10:04;;;;;;;5.90;3.80;;;;;;;-0.08;66.89;99246.20;104972;1270;96614;-74
2024/03/18 06:12:31;;;;;;;12.20;6.20;;;;;;;-0.03;66.91;99246.41;105348;1261;107651;-74
2024/03/18 06:14:59;;;;;;;7.40;3.90;;;;;;;0.03;67.00;99249.06;105056;1260;96629;-74
2024/03/18 06:17:27;;;;;;;6.20;3.60;;;;;;;0.08;66.99;99251.90;105106;1260;96602;-74
2024/03/18 06:19:58;;;;;;;12.20;5.90;;;;;;;0.12;66.97;99249.17;105228;1259;108963;-74
2024/03/18 06:22:32;;;;;;;13.50;8.90;;;;;;;0.16;67.02;99250.27;105379;1264;97335;-74
2024/03/18 06:27:46;;;;;;;6.30;4.20;;;;;;;0.25;67.02;99251.95;105155;1268;97924;-74
2024/03/18 06:30:14;;;;;;;5.50;3.30;;;;;;;0.27;66.99;99255.03;106223;1256;96596;-71
2024/03/18 06:32:42;;;;;;;5.20;3.30;;;;;;;0.29;66.95;99252.88;107937;1256;109892;-72
2024/03/18 06:35:10;;;;;;;5.00;3.50;;;;;;;0.28;67.06;99250.64;105323;1260;96554;-73
2024/03/18 06:37:38;;;;;;;6.40;3.50;;;;;;;0.28;66.95;99250.64;105286;1258;107710;-73
2024/03/18 06:40:11;;;;;;;6.70;3.60;;;;;;;0.33;67.07;99246.50;105559;1253;96707;-73
2024/03/18 06:42:39;;;;;;;6.90;3.50;;;;;;;0.40;67.25;99236.71;105338;1257;97821;-73
2024/03/18 06:45:07;;;;;;;5.30;3.10;;;;;;;0.46;67.38;99234.11;105201;1257;109762;-73
2024/03/18 06:47:35;;;;;;;4.90;2.90;;;;;;;0.52;67.41;99230.10;105312;1257;96619;-74
2024/03/18 06:50:02;;;;;;;5.90;3.50;;;;;;;0.63;67.30;99227.48;105046;1258;107683;-74
2024/03/18 06:52:32;;;;;;;8.40;4.80;;;;;;;0.73;67.28;99219.88;105305;1257;96618;-74
2024/03/18 06:55:00;;;;;;;6.20;3.80;;;;;;;0.84;67.23;99212.05;105414;1259;97428;-74
2024/03/18 06:57:30;;;;;;;5.50;4.00;;;;;;;0.97;67.62;99212.70;105295;1259;109229;-74
2024/03/18 07:00:04;;;;;;;8.20;5.60;;;;;;;1.04;67.49;99213.85;105356;1257;96551;-73
2024/03/18 07:02:34;;;;;;;8.90;5.80;;;;;;;1.07;67.50;99225.84;105427;1258;105519;-73
2024/03/18 07:05:02;;;;;;;7.20;4.30;;;;;;;1.06;67.30;99230.41;105304;1257;96694;-73
2024/03/18 07:07:29;;;;;;;8.30;4.50;;;;;;;1.01;67.57;99231.77;105307;1257;96702;-74
2024/03/18 07:09:57;;;;;;;8.00;4.30;;;;;;;0.97;67.64;99232.42;105238;1259;110007;-73
2024/03/18 07:12:24;;;;;;;8.30;5.20;;;;;;;0.96;67.64;99237.16;105140;1258;96655;-74
2024/03/18 07:14:52;;;;;;;7.40;4.10;;;;;;;0.96;67.63;99237.36;105069;1257;107045;-74
2024/03/18 07:17:19;;;;;;;6.70;3.80;;;;;;;0.97;67.83;99235.73;105065;1254;97550;-74
2024/03/18 07:19:47;;;;;;;5.90;3.60;;;;;;;0.99;67.68;99232.38;105192;1253;96634;-73
2024/03/18 07:22:35;;;;;;;10.40;4.70;;;;;;;1.04;67.81;99228.88;105069;1258;109943;-74
2024/03/18 07:25:04;;;;;;;7.60;4.30;;;;;;;1.08;67.78;99233.67;105142;1258;96629;-73
2024/03/18 07:27:31;;;;;;;5.60;4.00;;;;;;;1.09;68.00;99236.23;105435;1259;107414;-75
2024/03/18 07:30:00;;;;;;;7.30;4.00;;;;;;;1.08;67.85;99239.25;105131;1273;96708;-75
2024/03/18 07:32:28;;;;;;;8.80;5.00;;;;;;;1.06;67.78;99244.91;105364;1259;96769;-74
2024/03/18 07:34:55;;;;;;;6.40;4.20;;;;;;;1.07;68.23;99244.35;105467;1257;110055;-73
2024/03/18 07:37:37;;;;;;;8.20;5.00;;;;;;;1.05;67.86;99246.15;105168;1268;96604;-74
2024/03/18 07:40:07;;;;;;;6.30;4.40;;;;;;;1.01;68.03;99245.23;105710;1253;107643;-73
2024/03/18 07:42:35;;;;;;;6.90;4.00;;;;;;;0.96;68.02;99244.33;105301;1256;96696;-73
2024/03/18 07:45:02;;;;;;;8.20;4.30;;;;;;;0.94;67.86;99244.23;105154;1257;96559;-73
2024/03/18 07:47:30;;;;;;;146.60;40.80;;;;;;;0.94;67.95;99246.48;105428;1256;109755;-74
2024/03/18 07:49:57;;;;;;;121.20;36.40;;;;;;;0.94;67.78;99249.77;105289;1259;96552;-74
2024/03/18 07:52:25;;;;;;;76.30;23.80;;;;;;;1.01;67.88;99250.96;105158;1253;107286;-75
2024/03/18 07:54:52;;;;;;;43.40;12.40;;;;;;;1.07;67.85;99249.94;104950;1259;97975;-74
2024/03/18 07:57:20;;;;;;;23.80;8.20;;;;;;;1.10;67.91;99252.11;105098;1257;97827;-74
2024/03/18 07:59:48;;;;;;;17.30;6.30;;;;;;;1.13;67.90;99246.07;105337;1270;109920;-73
2024/03/18 08:02:15;;;;;;;26.20;7.80;;;;;;;1.21;67.94;99246.38;105175;1253;96574;-74
2024/03/18 08:04:43;;;;;;;23.80;7.30;;;;;;;1.30;67.85;99246.77;105115;1259;107648;-73
2024/03/18 08:07:10;;;;;;;17.80;7.80;;;;;;;1.34;67.88;99242.80;105120;1256;96659;-73
2024/03/18 08:09:38;;;;;;;25.50;9.50;;;;;;;1.36;67.91;99243.46;105378;1253;96697;-73
2024/03/18 08:12:06;;;;;;;31.20;11.70;;;;;;;1.33;67.90;99241.79;105368;1256;109955;-73
2024/03/18 08:14:38;;;;;;;18.00;8.40;;;;;;;1.27;67.59;99247.91;105436;1253;97931;-74
2024/03/18 08:17:06;;;;;;;11.90;5.70;;;;;;;1.25;67.93;99247.48;105446;1256;107201;-74
2024/03/18 08:19:33;;;;;;;8.60;4.20;;;;;;;1.26;67.75;99249.52;105534;1255;97577;-74
2024/03/18 08:22:01;;;;;;;8.80;4.10;;;;;;;1.27;67.68;99254.92;105386;1258;97974;-74
2024/03/18 08:24:46;;;;;;;7.00;3.40;;;;;;;1.24;67.72;99254.98;105084;1253;109685;-73
2024/03/18 08:27:14;;;;;;;6.10;3.40;;;;;;;1.24;67.74;99256.36;105306;1260;96621;-74
2024/03/18 08:29:41;;;;;;;5.70;3.60;;;;;;;1.25;67.60;99252.35;105285;1257;107386;-73
2024/03/18 08:32:09;;;;;;;6.00;3.80;;;;;;;1.26;67.71;99247.23;105462;1257;96604;-73
2024/03/18 08:34:37;;;;;;;7.20;4.90;;;;;;;1.29;67.53;99245.77;105101;1259;96532;-74
2024/03/18 08:37:04;;;;;;;6.10;3.50;;;;;;;1.27;67.65;99243.36;105387;1257;109874;-74
2024/03/18 08:39:32;;;;;;;5.80;4.00;;;;;;;1.30;67.65;99246.77;105111;1258;96570;-74
2024/03/18 08:42:00;;;;;;;7.40;3.40;;;;;;;1.33;67.50;99246.86;105391;1257;106554;-74
2024/03/18 08:44:27;;;;;;;6.70;3.50;;;;;;;1.35;67.59;99246.27;105186;1256;96630;-73
2024/03/18 08:46:55;;;;;;;6.10;3.40;;;;;;;1.39;67.71;99243.00;105121;1273;96581;-72
2024/03/18 08:49:23;;;;;;;8.40;4.90;;;;;;;1.41;67.61;99244.69;105385;1257;109970;-73
2024/03/18 08:51:51;;;;;;;6.20;4.40;;;;;;;1.41;67.69;99246.09;105356;1258;97113;-73
2024/03/18 08:54:19;;;;;;;8.40;5.10;;;;;;;1.43;67.78;99242.89;105276;1259;107335;-74
2024/03/18 08:56:47;;;;;;;14.60;7.90;;;;;;;1.43;67.52;99243.55;105275;1266;96608;-73
2024/03/18 08:59:14;;;;;;;9.70;5.70;;;;;;;1.38;67.56;99243.71;105127;1256;97837;-74
2024/03/18 09:01:42;;;;;;;9.30;4.60;;;;;;;1.33;67.38;99248.23;105308;1259;109387;-74
2024/03/18 09:04:10;;;;;;;6.30;3.90;;;;;;;1.32;67.27;99250.20;105458;1257;96615;-74
2024/03/18 09:06:38;;;;;;;6.50;4.30;;;;;;;1.29;67.42;99248.89;105365;1259;107655;-74
2024/03/18 09:09:06;;;;;;;5.00;3.50;;;;;;;1.28;67.23;99244.41;105344;1257;96685;-74
2024/03/18 09:11:33;;;;;;;6.70;3.20;;;;;;;1.28;67.46;99247.02;105440;1257;96625;-74
2024/03/18 09:14:01;;;;;;;7.90;3.50;;;;;;;1.30;67.54;99243.62;105319;1259;108777;-73
2024/03/18 09:16:28;;;;;;;8.30;3.70;;;;;;;1.34;67.49;99243.86;105158;1259;96608;-73
2024/03/18 09:18:56;;;;;;;8.20;4.20;;;;;;;1.40;67.41;99241.58;105074;1257;107644;-73
2024/03/18 09:21:24;;;;;;;7.00;3.70;;;;;;;1.48;67.38;99242.02;105375;1266;96630;-72
2024/03/18 09:23:51;;;;;;;7.70;3.30;;;;;;;1.52;67.51;99241.02;105423;1255;96647;-73
2024/03/18 09:26:19;;;;;;;5.40;2.60;;;;;;;1.60;67.40;99244.94;105425;1257;109949;-73
2024/03/18 09:28:46;;;;;;;8.50;3.30;;;;;;;1.63;67.32;99241.85;105079;1259;96623;-74
2024/03/18 09:31:14;;;;;;;3.80;2.10;;;;;;;1.65;67.01;99242.48;105395;1259;107134;-74
2024/03/18 09:33:41;;;;;;;6.10;2.70;;;;;;;1.66;66.86;99240.02;105370;1256;96525;-73
2024/03/18 09:36:09;;;;;;;6.40;3.30;;;;;;;1.73;67.16;99241.03;105504;1256;96639;-72
2024/03/18 09:38:36;;;;;;;6.30;3.00;;;;;;;1.82;67.01;99239.67;105402;1257;109972;-73
2024/03/18 09:41:06;;;;;;;6.10;2.80;;;;;;;1.87;66.78;99242.64;105327;1257;96628;-73
2024/03/18 09:43:35;;;;;;;5.30;2.90;;;;;;;1.85;66.58;99244.62;105177;1259;109017;-72
2024/03/18 09:46:04;;;;;;;5.60;3.30;;;;;;;1.83;66.45;99242.10;105069;1267;98054;-72
2024/03/18 09:48:32;;;;;;;4.80;2.70;;;;;;;1.81;66.57;99243.90;105351;1256;98051;-73
2024/03/18 09:51:00;;;;;;;4.50;2.40;;;;;;;1.82;66.43;99245.98;105413;1259;111208;-72
2024/03/18 09:53:29;;;;;;;4.90;2.30;;;;;;;1.85;66.83;99244.27;105306;1268;99325;-72
2024/03/18 09:55:57;;;;;;;5.40;2.80;;;;;;;1.87;66.69;99250.52;105400;1257;106757;-73
2024/03/18 09:58:24;;;;;;;5.40;3.30;;;;;;;1.84;66.56;99248.88;105160;1257;97958;-73
2024/03/18 10:00:52;;;;;;;21.90;7.90;;;;;;;1.79;66.61;99249.21;105262;1258;97979;-73
2024/03/18 10:03:20;;;;;;;9.50;5.10;;;;;;;1.76;66.68;99251.05;105897;1259;111285;-74
2024/03/18 10:05:48;;;;;;;13.60;7.90;;;;;;;1.70;66.70;99246.55;106792;1259;98050;-74
2024/03/18 10:08:19;;;;;;;23.90;11.40;;;;;;;1.69;66.63;99247.98;105394;1257;107121;-73
2024/03/18 10:10:52;;;;;;;8.50;4.10;;;;;;;1.67;66.71;99248.04;105265;1257;98465;-72
2024/03/18 10:13:23;;;;;;;5.50;3.60;;;;;;;1.63;66.54;99249.73;105356;1259;97901;-74
2024/03/18 10:15:51;;;;;;;5.00;3.40;;;;;;;1.59;66.49;99251.77;105243;1259;110904;-74
2024/03/18 10:18:19;;;;;;;5.80;3.10;;;;;;;1.55;66.34;99248.27;105119;1257;98928;-74
2024/03/18 10:20:50;;;;;;;7.10;4.30;;;;;;;1.52;66.42;99249.93;105127;1257;107301;-74
2024/03/18 10:23:20;;;;;;;5.40;3.10;;;;;;;1.50;66.33;99247.34;105564;1256;98050;-74
2024/03/18 10:25:47;;;;;;;7.30;3.20;;;;;;;1.50;66.50;99247.20;105361;1256;97962;-74
2024/03/18 10:28:15;;;;;;;6.10;3.20;;;;;;;1.52;66.40;99246.94;105306;1256;111404;-73
2024/03/18 10:30:42;;;;;;;6.10;3.00;;;;;;;1.55;66.48;99249.13;105497;1257;97983;-74
2024/03/18 10:33:16;;;;;;;4.90;3.10;;;;;;;1.57;66.39;99249.23;105289;1258;107179;-71
2024/03/18 10:35:48;;;;;;;10.00;4.60;;;;;;;1.59;66.34;99246.39;105275;1269;98104;-72
2024/03/18 10:38:23;;;;;;;7.50;3.60;;;;;;;1.63;66.28;99250.25;105324;1257;99518;-73
2024/03/18 10:40:54;;;;;;;5.70;2.80;;;;;;;1.65;66.15;99250.17;105466;1259;111255;-74
2024/03/18 10:43:32;;;;;;;7.00;3.60;;;;;;;1.64;66.35;99249.00;105519;1257;97972;-72
2024/03/18 10:45:59;;;;;;;4.60;2.90;;;;;;;1.63;66.14;99249.38;105216;1268;107194;-73
2024/03/18 10:48:28;;;;;;;5.80;2.60;;;;;;;1.64;66.21;99247.96;105317;1266;97955;-74
2024/03/18 10:50:58;;;;;;;5.70;2.30;;;;;;;1.67;66.18;99245.75;105469;1261;97868;-73
2024/03/18 10:53:27;;;;;;;5.60;2.80;;;;;;;1.70;66.02;99245.64;105394;1257;112295;-73
2024/03/18 10:56:09;;;;;;;5.40;2.90;;;;;;;1.74;65.81;99245.89;105461;1275;98108;-72
2024/03/18 10:58:37;;;;;;;5.30;3.10;;;;;;;1.78;65.84;99246.10;105340;1257;107629;-73
2024/03/18 11:03:43;;;;;;;5.90;3.20;;;;;;;1.85;65.82;99240.95;102248;1290;635786;-74
2024/03/18 11:06:15;;;;;;;6.40;3.80;;;;;;;1.91;65.86;99237.27;105325;1256;95238;-75
2024/03/18 11:08:42;;;;;;;5.10;3.50;;;;;;;2.02;65.96;99235.15;105338;1254;95264;-72
2024/03/18 11:11:15;;;;;;;4.50;3.00;;;;;;;2.11;66.20;99231.49;105179;1257;108094;-73
2024/03/18 11:13:44;;;;;;;4.80;3.20;;;;;;;2.16;65.89;99231.69;105413;1257;95255;-73
2024/03/18 11:16:13;;;;;;;6.80;3.40;;;;;;;2.18;65.97;99231.77;105292;1251;166314;-74
2024/03/18 11:18:46;;;;;;;4.70;3.10;;;;;;;2.22;65.89;99229.72;105235;1260;95264;-73
2024/03/18 11:21:19;;;;;;;7.40;3.20;;;;;;;2.29;65.89;99227.89;105400;1256;95291;-73
2024/03/18 11:24:00;;;;;;;4.50;2.50;;;;;;;2.37;65.95;99228.14;105435;1256;108261;-75
2024/03/18 11:26:29;;;;;;;5.60;3.10;;;;;;;2.40;65.80;99229.25;105440;1257;95206;-73
2024/03/18 11:29:07;;;;;;;9.00;5.50;;;;;;;2.43;65.69;99228.80;105391;1256;107086;-73
2024/03/18 11:31:36;;;;;;;6.60;3.80;;;;;;;2.44;65.53;99227.52;105492;1256;96642;-73
2024/03/18 11:34:08;;;;;;;7.60;4.60;;;;;;;2.46;65.57;99224.30;105426;1254;96710;-75
2024/03/18 11:36:38;;;;;;;6.00;3.60;;;;;;;2.51;65.83;99227.45;105493;1251;109882;-72
2024/03/18 11:39:12;;;;;;;6.00;3.30;;;;;;;2.52;65.38;99226.89;105455;1257;96903;-73
2024/03/18 11:41:40;;;;;;;7.80;3.40;;;;;;;2.52;65.67;99223.54;105460;1257;107945;-74
2024/03/18 11:44:12;;;;;;;6.70;3.50;;;;;;;2.56;65.49;99222.36;105366;1254;97268;-74
2024/03/18 11:46:42;;;;;;;8.40;3.60;;;;;;;2.62;65.69;99219.88;105347;1257;96555;-74